TAF and METAR

METAR for Banjul International Airport

GBYD 010900Z 02005KT 9000 NSC 20/11 Q1011
Report created 1. mar 10:00
wind 5 knots from NNE (020°) visibility 9000 meters No significant clouds. Temperature 20° with dewpoint at 11° (Humidity 56.19%) Pressure 1011 hPa

TAF for Banjul International Airport

TAF GBYD 010500Z 0106/0212 05010KT CAVOK
Report created 1. mar 06:00

between 1. mar 07:00 - 2. mar 13:00

wind 10 knots from NE (050°) Clear sky
Banjul International Airport in Gambia at 36m

Latest 5 airports